Time;durP1;ratioP1;P1;durP2;ratioP2;P2;SDS_P1;SDS_P2;PMS_P1;PMS_P2;Temp;Humidity;BMP_temperature;BMP_pressure;BME280_temperature;BME280_humidity;BME280_pressure;Samples;Min_cycle;Max_cycle;Signal;HPM_P1;HPM_P2
2023/05/29 00:00:05;;;;;;;1999.90;999.90;;;12.00;99.90;;;;;;6292736;22;20004;-84
2023/05/29 00:02:31;;;;;;;1999.90;999.90;;;12.00;99.90;;;;;;6292293;22;20098;-84
2023/05/29 00:04:56;;;;;;;1999.90;999.90;;;12.00;99.90;;;;;;6294114;22;20043;-84
2023/05/29 00:07:22;;;;;;;1999.90;999.90;;;11.90;99.90;;;;;;6322340;22;20019;-84
2023/05/29 00:09:48;;;;;;;1999.90;999.90;;;11.90;99.90;;;;;;6322201;22;20004;-84
2023/05/29 00:12:14;;;;;;;1999.90;999.90;;;11.90;99.90;;;;;;6293428;22;20428;-84
2023/05/29 00:14:40;;;;;;;1999.90;999.90;;;11.90;99.90;;;;;;6299245;22;20022;-83
2023/05/29 00:17:06;;;;;;;1999.90;999.90;;;11.80;99.90;;;;;;6314820;22;20338;-83
2023/05/29 00:19:32;;;;;;;1999.90;999.90;;;11.90;99.90;;;;;;6314599;22;20331;-83
2023/05/29 00:21:57;;;;;;;1999.90;999.90;;;11.90;99.90;;;;;;6314842;22;20045;-83
2023/05/29 00:24:23;;;;;;;1999.90;999.90;;;11.90;99.90;;;;;;6315098;22;20009;-83
2023/05/29 00:26:48;;;;;;;1999.90;999.90;;;11.90;99.90;;;;;;6316701;22;20061;-83
2023/05/29 00:29:15;;;;;;;1999.90;999.90;;;11.90;99.90;;;;;;6315327;22;20008;-83
2023/05/29 00:31:40;;;;;;;1999.90;999.90;;;11.90;99.90;;;;;;6315677;22;20034;-82
2023/05/29 00:34:06;;;;;;;1999.90;999.90;;;11.90;99.90;;;;;;6315833;22;20014;-82
2023/05/29 00:36:31;;;;;;;1999.90;999.90;;;11.90;99.90;;;;;;6317386;22;20059;-83
2023/05/29 00:38:57;;;;;;;1999.90;999.90;;;11.90;99.90;;;;;;6316530;22;20083;-83
2023/05/29 00:41:22;;;;;;;1999.90;999.90;;;11.90;99.90;;;;;;6316290;22;20166;-83
2023/05/29 00:43:48;;;;;;;1999.90;999.90;;;12.00;99.90;;;;;;6317758;22;20018;-83
2023/05/29 00:46:15;;;;;;;1999.90;999.90;;;11.90;99.90;;;;;;6318659;22;20015;-82
2023/05/29 00:48:44;;;;;;;1999.90;999.90;;;11.90;99.90;;;;;;6318670;22;20073;-83
2023/05/29 00:51:11;;;;;;;1999.90;999.90;;;11.80;99.90;;;;;;6316221;22;20004;-83
2023/05/29 00:53:38;;;;;;;1999.90;999.90;;;11.90;99.90;;;;;;6316718;22;20448;-83
2023/05/29 00:56:04;;;;;;;1999.90;999.90;;;11.90;99.90;;;;;;6315652;22;20008;-83
2023/05/29 00:58:30;;;;;;;1999.90;999.90;;;11.90;99.90;;;;;;6315328;22;20509;-83
2023/05/29 01:00:57;;;;;;;1999.90;999.90;;;11.90;99.90;;;;;;6317646;22;20008;-83
2023/05/29 01:03:23;;;;;;;1999.90;999.90;;;11.90;99.90;;;;;;6316034;22;20011;-82
2023/05/29 01:05:49;;;;;;;1999.90;999.90;;;11.90;99.90;;;;;;6316068;22;20103;-83
2023/05/29 01:08:14;;;;;;;1999.90;999.90;;;11.80;99.90;;;;;;6317863;22;20383;-83
2023/05/29 01:10:42;;;;;;;1999.90;999.90;;;11.80;99.90;;;;;;6315981;22;20004;-83
2023/05/29 01:13:21;;;;;;;1999.90;999.90;;;11.80;99.90;;;;;;6316348;22;20012;-83
2023/05/29 01:15:54;;;;;;;1999.90;999.90;;;11.70;99.90;;;;;;6158717;23;20013;-83
2023/05/29 01:18:34;;;;;;;1999.90;999.90;;;11.70;99.90;;;;;;6159120;22;20013;-83
2023/05/29 01:21:18;;;;;;;1999.90;999.90;;;11.70;99.90;;;;;;6158681;22;20018;-83
2023/05/29 01:23:46;;;;;;;1999.90;999.90;;;11.60;99.90;;;;;;6161271;22;20014;-83
2023/05/29 01:26:46;;;;;;;1999.90;999.90;;;11.60;99.90;;;;;;6161911;22;20064;-83
2023/05/29 01:29:15;;;;;;;1999.90;999.90;;;11.40;99.90;;;;;;6161121;22;20021;-83
2023/05/29 01:31:43;;;;;;;1999.90;999.90;;;11.40;99.90;;;;;;6161963;22;20013;-83
2023/05/29 01:34:09;;;;;;;1999.90;999.90;;;11.30;99.90;;;;;;6158756;23;20063;-83
2023/05/29 01:36:36;;;;;;;1999.90;999.90;;;11.30;99.90;;;;;;6157830;22;20079;-83
2023/05/29 01:39:02;;;;;;;1999.90;999.90;;;11.30;99.90;;;;;;6157389;22;20014;-83
2023/05/29 01:41:29;;;;;;;1999.90;999.90;;;11.30;99.90;;;;;;6159523;23;20002;-83
2023/05/29 01:43:57;;;;;;;1999.90;999.90;;;11.30;99.90;;;;;;6182391;22;20025;-83
2023/05/29 01:46:25;;;;;;;1999.90;999.90;;;11.30;99.90;;;;;;6159927;23;20010;-83
2023/05/29 01:48:51;;;;;;;1999.90;999.90;;;11.30;99.90;;;;;;6160222;23;20006;-83
2023/05/29 01:51:17;;;;;;;1999.90;999.90;;;11.30;99.90;;;;;;6158795;23;20501;-83
2023/05/29 01:53:44;;;;;;;1999.90;999.90;;;11.20;99.90;;;;;;6159556;22;20041;-83
2023/05/29 01:56:10;;;;;;;1999.90;999.90;;;11.20;99.90;;;;;;6158238;22;20041;-83
2023/05/29 01:58:37;;;;;;;1999.90;999.90;;;11.30;99.90;;;;;;6160592;23;20468;-83
2023/05/29 02:01:03;;;;;;;1999.90;999.90;;;11.20;99.90;;;;;;6160078;23;20011;-83
2023/05/29 02:03:29;;;;;;;1999.90;999.90;;;11.20;99.90;;;;;;6159811;22;20018;-83
2023/05/29 02:05:59;;;;;;;1999.90;999.90;;;11.20;99.90;;;;;;6160777;23;20437;-82
2023/05/29 02:08:25;;;;;;;1999.90;999.90;;;11.20;99.90;;;;;;6163176;23;20063;-83
2023/05/29 02:10:50;;;;;;;1999.90;999.90;;;11.10;99.90;;;;;;6163574;22;20006;-82
2023/05/29 02:13:17;;;;;;;1999.90;999.90;;;11.10;99.90;;;;;;6157505;22;20400;-83
2023/05/29 02:15:43;;;;;;;1999.90;999.90;;;11.10;99.90;;;;;;6313154;22;20011;-83
2023/05/29 02:18:11;;;;;;;1999.90;999.90;;;11.00;99.90;;;;;;6314092;22;20007;-82
2023/05/29 02:20:37;;;;;;;1999.90;999.90;;;10.90;99.90;;;;;;6314196;22;20017;-83
2023/05/29 02:23:03;;;;;;;1999.90;999.90;;;10.90;99.90;;;;;;6314120;22;20823;-82
2023/05/29 02:25:28;;;;;;;1999.90;999.90;;;10.80;99.90;;;;;;6315545;22;20007;-83
2023/05/29 02:27:54;;;;;;;1999.90;999.90;;;10.80;99.90;;;;;;6313809;22;20351;-83
2023/05/29 02:30:20;;;;;;;1999.90;999.90;;;10.80;99.90;;;;;;6316584;22;20324;-83
2023/05/29 02:32:46;;;;;;;1999.90;999.90;;;10.80;99.90;;;;;;6313697;22;20018;-83
2023/05/29 02:35:14;;;;;;;1999.90;999.90;;;10.80;99.90;;;;;;6314181;22;20086;-83
2023/05/29 02:37:40;;;;;;;1999.90;999.90;;;10.80;99.90;;;;;;6316453;22;20003;-83
2023/05/29 02:40:08;;;;;;;1999.90;999.90;;;10.70;99.90;;;;;;6316072;22;20007;-83
2023/05/29 02:42:33;;;;;;;1999.90;999.90;;;10.70;99.90;;;;;;6313730;22;20418;-83
2023/05/29 02:44:59;;;;;;;1999.90;999.90;;;10.60;99.90;;;;;;6315485;22;20007;-83
2023/05/29 02:47:24;;;;;;;1999.90;999.90;;;10.70;99.90;;;;;;6314106;22;20137;-83
2023/05/29 02:49:50;;;;;;;1999.90;999.90;;;10.60;99.90;;;;;;6315858;22;20514;-83
2023/05/29 02:52:15;;;;;;;1999.90;999.90;;;10.60;99.90;;;;;;6313573;22;20084;-84
2023/05/29 02:54:41;;;;;;;1999.90;999.90;;;10.60;99.90;;;;;;6315739;22;20424;-83
2023/05/29 02:57:06;;;;;;;1999.90;999.90;;;10.60;99.90;;;;;;6316583;22;20038;-83
2023/05/29 02:59:32;;;;;;;1999.90;999.90;;;10.60;99.90;;;;;;6316148;22;20431;-83
2023/05/29 03:01:57;;;;;;;1999.90;999.90;;;10.60;99.90;;;;;;6313802;22;20355;-84
2023/05/29 03:04:23;;;;;;;1999.90;999.90;;;10.60;99.90;;;;;;6315151;22;20008;-83
2023/05/29 03:06:48;;;;;;;1999.90;999.90;;;10.60;99.90;;;;;;6314910;22;20339;-83
2023/05/29 03:09:16;;;;;;;1999.90;999.90;;;10.60;99.90;;;;;;6314761;22;20008;-83
2023/05/29 03:11:42;;;;;;;1999.90;999.90;;;10.60;99.90;;;;;;6315375;22;20081;-84
2023/05/29 03:14:08;;;;;;;1999.90;999.90;;;10.60;99.90;;;;;;6315228;22;20011;-84
2023/05/29 03:16:35;;;;;;;1999.90;999.90;;;10.60;99.90;;;;;;6315698;22;20008;-83
2023/05/29 03:19:01;;;;;;;1999.90;999.90;;;10.60;99.90;;;;;;6317392;22;20431;-82
2023/05/29 03:21:27;;;;;;;1999.90;999.90;;;10.50;99.90;;;;;;6319450;22;20016;-83
2023/05/29 03:23:52;;;;;;;1999.90;999.90;;;10.60;99.90;;;;;;6317908;22;20343;-84
2023/05/29 03:26:18;;;;;;;1999.90;999.90;;;10.60;99.90;;;;;;6318062;22;20015;-83
2023/05/29 03:28:43;;;;;;;1999.90;999.90;;;10.50;99.90;;;;;;6318430;22;20111;-83
2023/05/29 03:31:09;;;;;;;1999.90;999.90;;;10.50;99.90;;;;;;6319801;22;20019;-83
2023/05/29 03:33:36;;;;;;;1999.90;999.90;;;10.50;99.90;;;;;;6323207;22;20027;-84
2023/05/29 03:36:01;;;;;;;1999.90;999.90;;;10.60;99.90;;;;;;6317239;22;20011;-84
2023/05/29 03:38:28;;;;;;;1999.90;999.90;;;10.50;99.90;;;;;;6315858;22;20003;-84
2023/05/29 03:40:54;;;;;;;1999.90;999.90;;;10.60;99.90;;;;;;6314656;22;20011;-84
2023/05/29 03:43:19;;;;;;;1999.90;999.90;;;10.60;99.90;;;;;;6315416;22;20004;-84
2023/05/29 03:45:45;;;;;;;1999.90;999.90;;;10.60;99.90;;;;;;6317037;22;20499;-84
2023/05/29 03:48:10;;;;;;;1999.90;999.90;;;10.50;99.90;;;;;;6314893;22;20018;-84
2023/05/29 03:50:36;;;;;;;1999.90;999.90;;;10.50;99.90;;;;;;6315283;22;20012;-84
2023/05/29 03:53:01;;;;;;;1999.90;999.90;;;10.50;99.90;;;;;;6315526;22;20015;-84
2023/05/29 03:55:28;;;;;;;1999.90;999.90;;;10.50;99.90;;;;;;6317640;22;20410;-84
2023/05/29 03:57:53;;;;;;;1999.90;999.90;;;10.50;99.90;;;;;;6315763;22;20161;-84
2023/05/29 04:00:19;;;;;;;1999.90;999.90;;;10.50;99.90;;;;;;6318535;22;20046;-84
2023/05/29 04:02:45;;;;;;;1999.90;999.90;;;10.60;99.90;;;;;;6316378;22;20058;-83
2023/05/29 04:05:12;;;;;;;1999.90;999.90;;;10.60;99.90;;;;;;6316717;22;20008;-84
2023/05/29 04:07:38;;;;;;;1999.90;999.90;;;10.60;99.90;;;;;;6316921;22;20066;-83
2023/05/29 04:10:04;;;;;;;1999.90;999.90;;;10.70;99.90;;;;;;6316837;22;20062;-84
2023/05/29 04:12:30;;;;;;;1999.90;999.90;;;10.80;99.90;;;;;;6318853;22;20004;-84
2023/05/29 04:14:55;;;;;;;1999.90;999.90;;;10.80;99.90;;;;;;6317534;22;20007;-83
2023/05/29 04:17:21;;;;;;;1999.90;999.90;;;10.80;99.90;;;;;;6316977;22;20308;-83
2023/05/29 04:19:46;;;;;;;1999.90;999.90;;;10.80;99.90;;;;;;6317254;22;20435;-84
2023/05/29 04:22:13;;;;;;;1999.90;999.90;;;10.80;99.90;;;;;;6318629;22;20443;-84
2023/05/29 04:24:38;;;;;;;1999.90;999.90;;;10.90;99.90;;;;;;6319605;22;20007;-84
2023/05/29 04:27:04;;;;;;;1999.90;999.90;;;10.90;99.90;;;;;;6319475;22;20023;-83
2023/05/29 04:29:30;;;;;;;1999.90;999.90;;;10.80;99.90;;;;;;6319596;22;20080;-83
2023/05/29 04:31:56;;;;;;;1999.90;999.90;;;10.90;99.90;;;;;;6315394;22;20018;-83
2023/05/29 04:34:21;;;;;;;1999.90;999.90;;;11.00;99.90;;;;;;6315346;22;20004;-83
2023/05/29 04:36:47;;;;;;;1999.90;999.90;;;11.00;99.90;;;;;;6315255;22;20007;-83
2023/05/29 04:39:13;;;;;;;1999.90;999.90;;;11.10;99.90;;;;;;6315183;22;20047;-83
2023/05/29 04:41:40;;;;;;;1999.90;999.90;;;11.10;99.90;;;;;;6316704;22;20061;-83
2023/05/29 04:44:07;;;;;;;1999.90;999.90;;;11.10;99.90;;;;;;6316623;22;20006;-83
2023/05/29 04:46:34;;;;;;;1999.90;999.90;;;11.10;99.90;;;;;;6315000;22;20476;-83
2023/05/29 04:49:02;;;;;;;1999.90;999.90;;;11.10;99.90;;;;;;6316855;22;20004;-83
2023/05/29 04:51:28;;;;;;;1999.90;999.90;;;11.20;99.90;;;;;;6314281;22;20309;-84
2023/05/29 04:53:54;;;;;;;1999.90;999.90;;;11.30;99.90;;;;;;6315392;22;19999;-83
2023/05/29 04:56:20;;;;;;;1999.90;999.90;;;11.30;99.90;;;;;;6315581;22;20011;-83
2023/05/29 04:58:46;;;;;;;1999.90;999.90;;;11.40;99.90;;;;;;6315125;22;20422;-83
2023/05/29 05:01:14;;;;;;;1999.90;999.90;;;11.40;99.90;;;;;;6315820;22;20011;-83
2023/05/29 05:03:40;;;;;;;1999.90;999.90;;;11.40;99.90;;;;;;6317544;22;20000;-84
2023/05/29 05:06:07;;;;;;;1999.90;999.90;;;11.50;99.90;;;;;;6315590;22;20019;-83
2023/05/29 05:08:32;;;;;;;1999.90;999.90;;;11.60;99.90;;;;;;6318353;22;20004;-83
2023/05/29 05:10:59;;;;;;;1999.90;999.90;;;11.70;99.90;;;;;;6316939;22;20007;-83
2023/05/29 05:13:25;;;;;;;1999.90;999.90;;;11.90;99.90;;;;;;6310464;22;20007;-83
2023/05/29 05:15:51;;;;;;;1999.90;999.90;;;12.00;99.90;;;;;;6191355;23;20016;-83
2023/05/29 05:18:16;;;;;;;1999.90;999.90;;;12.10;99.90;;;;;;6296170;22;20013;-83
2023/05/29 05:20:42;;;;;;;1999.90;999.90;;;12.20;99.90;;;;;;6296280;22;20010;-83
2023/05/29 05:23:07;;;;;;;1999.90;999.90;;;12.30;99.90;;;;;;6295403;22;20095;-83
2023/05/29 05:25:35;;;;;;;1999.90;999.90;;;12.40;99.90;;;;;;6295910;22;20010;-83
2023/05/29 05:28:02;;;;;;;1999.90;999.90;;;12.60;99.90;;;;;;6296884;22;20816;-83
2023/05/29 05:30:28;;;;;;;1999.90;999.90;;;12.70;99.90;;;;;;6297590;22;20010;-83
2023/05/29 05:32:54;;;;;;;1999.90;999.90;;;12.80;99.90;;;;;;6192968;22;20084;-83
2023/05/29 05:35:20;;;;;;;1999.90;999.90;;;13.00;99.90;;;;;;6301127;22;20025;-83
2023/05/29 05:37:46;;;;;;;1999.90;999.90;;;13.00;99.90;;;;;;6318717;22;20018;-83
2023/05/29 05:40:12;;;;;;;1999.90;999.90;;;13.20;99.90;;;;;;6292034;22;20058;-83
2023/05/29 05:42:38;;;;;;;1999.90;999.90;;;13.30;99.90;;;;;;6292008;22;20477;-83
2023/05/29 05:45:04;;;;;;;1999.90;999.90;;;13.40;99.90;;;;;;6292958;22;20016;-83
2023/05/29 05:47:30;;;;;;;1999.90;999.90;;;13.60;99.90;;;;;;6292401;22;20022;-82
2023/05/29 05:49:55;;;;;;;1999.90;999.90;;;13.70;99.90;;;;;;6188372;23;20002;-83
2023/05/29 05:52:22;;;;;;;1999.90;999.90;;;13.80;99.90;;;;;;6292074;22;20006;-83
2023/05/29 05:54:47;;;;;;;1999.90;999.90;;;13.90;99.90;;;;;;6319277;22;20441;-83
2023/05/29 05:57:13;;;;;;;1999.90;999.90;;;14.00;99.90;;;;;;6293810;22;20021;-82
2023/05/29 05:59:39;;;;;;;1999.90;999.90;;;14.20;99.90;;;;;;6293887;22;20059;-83
2023/05/29 06:02:04;;;;;;;1999.90;999.90;;;14.20;99.90;;;;;;6293513;22;20043;-82
2023/05/29 06:04:30;;;;;;;1999.90;999.90;;;14.30;99.90;;;;;;6294282;22;20055;-82
2023/05/29 06:06:56;;;;;;;1999.90;999.90;;;14.40;99.90;;;;;;6320210;22;20018;-83
2023/05/29 06:09:21;;;;;;;1999.90;999.90;;;14.50;99.90;;;;;;6294400;22;20041;-82
2023/05/29 06:11:50;;;;;;;1999.90;999.90;;;14.50;99.90;;;;;;6319453;22;20005;-82
2023/05/29 06:14:16;;;;;;;1999.90;999.90;;;14.60;99.90;;;;;;6293583;22;20088;-82
2023/05/29 06:16:42;;;;;;;1999.90;999.90;;;14.70;99.50;;;;;;6293088;22;20025;-82
2023/05/29 06:19:08;;;;;;;1999.90;999.90;;;14.80;99.40;;;;;;6292320;22;20037;-82
2023/05/29 06:21:34;;;;;;;1999.90;999.90;;;14.90;99.10;;;;;;6292567;22;20029;-83
2023/05/29 06:23:59;;;;;;;1999.90;999.90;;;14.90;98.40;;;;;;6189073;23;20401;-82
2023/05/29 06:26:26;;;;;;;1999.90;999.90;;;15.00;98.40;;;;;;6188701;23;20017;-82
2023/05/29 06:28:52;;;;;;;1999.90;999.90;;;15.00;98.30;;;;;;6293450;22;20448;-83
2023/05/29 06:31:17;;;;;;;1999.90;999.90;;;15.20;98.60;;;;;;6188534;23;20010;-83
2023/05/29 06:33:43;;;;;;;1999.90;999.90;;;15.20;98.00;;;;;;6319573;22;20076;-82
2023/05/29 06:36:09;;;;;;;1999.90;999.90;;;15.30;97.80;;;;;;6188868;23;20009;-82
2023/05/29 06:38:35;;;;;;;1999.90;999.90;;;15.40;98.10;;;;;;6293625;22;20010;-82
2023/05/29 06:41:00;;;;;;;1999.90;999.90;;;15.50;97.70;;;;;;6188125;22;20002;-82
2023/05/29 06:43:27;;;;;;;1999.90;999.90;;;15.60;97.90;;;;;;6295285;22;20010;-82
2023/05/29 06:45:52;;;;;;;1999.90;999.90;;;15.70;98.90;;;;;;6293219;22;20020;-82
2023/05/29 06:48:18;;;;;;;1999.90;999.90;;;15.80;97.30;;;;;;6322080;22;20022;-82
2023/05/29 06:50:43;;;;;;;1999.90;999.90;;;16.00;96.90;;;;;;6189959;23;19998;-83
2023/05/29 06:53:09;;;;;;;1999.90;999.90;;;16.10;97.00;;;;;;6190097;23;20080;-82
2023/05/29 06:55:34;;;;;;;1999.90;999.90;;;16.30;96.50;;;;;;6294165;22;20389;-83
2023/05/29 06:58:00;;;;;;;1999.90;999.90;;;16.40;96.60;;;;;;6295124;22;20460;-82
2023/05/29 07:00:25;;;;;;;1999.90;999.90;;;16.60;95.80;;;;;;6294430;22;20010;-81
2023/05/29 07:02:51;;;;;;;1999.90;999.90;;;16.70;95.60;;;;;;6294813;22;20017;-81
2023/05/29 07:05:17;;;;;;;1999.90;999.90;;;16.80;95.70;;;;;;6190638;23;20085;-82
2023/05/29 07:07:42;;;;;;;1999.90;999.90;;;17.00;95.70;;;;;;6295453;22;20013;-82
2023/05/29 07:10:08;;;;;;;1999.90;999.90;;;17.20;95.50;;;;;;6295631;22;20397;-81
2023/05/29 07:12:34;;;;;;;1999.90;999.90;;;17.40;95.40;;;;;;6296499;22;20449;-82
2023/05/29 07:14:59;;;;;;;1999.90;999.90;;;17.70;95.50;;;;;;6297116;22;20020;-82
2023/05/29 07:17:25;;;;;;;1999.90;999.90;;;17.80;95.10;;;;;;6305362;22;20021;-82
2023/05/29 07:19:50;;;;;;;1999.90;999.90;;;18.00;94.60;;;;;;6325502;22;20340;-82
2023/05/29 07:22:16;;;;;;;1999.90;999.90;;;18.20;93.80;;;;;;6299678;22;20010;-81
2023/05/29 07:24:41;;;;;;;1999.90;999.90;;;18.50;94.60;;;;;;6296841;22;20104;-84
2023/05/29 07:27:07;;;;;;;1999.90;999.90;;;18.50;93.90;;;;;;6192307;23;20009;-81
2023/05/29 07:29:32;;;;;;;1999.90;999.90;;;18.80;93.80;;;;;;6295858;22;20002;-80
2023/05/29 07:31:58;;;;;;;1999.90;999.90;;;18.90;94.10;;;;;;6295861;22;20075;-81
2023/05/29 07:34:24;;;;;;;1999.90;999.90;;;19.10;92.70;;;;;;6299295;22;20396;-81
2023/05/29 07:37:04;;;;;;;1999.90;999.90;;;19.40;92.90;;;;;;6201579;23;20028;-82
2023/05/29 07:39:30;;;;;;;1999.90;999.90;;;19.50;92.70;;;;;;6293321;22;20449;-80
2023/05/29 07:41:56;;;;;;;1999.90;999.90;;;19.60;91.80;;;;;;6294277;22;20069;-79
2023/05/29 07:44:21;;;;;;;1999.90;999.90;;;19.80;91.20;;;;;;6294929;22;20048;-81
2023/05/29 07:46:47;;;;;;;1999.90;999.90;;;20.10;91.70;;;;;;6321438;22;20010;-79
2023/05/29 07:49:13;;;;;;;1999.90;999.90;;;20.10;90.70;;;;;;6189741;23;20001;-81
2023/05/29 07:51:38;;;;;;;1999.90;999.90;;;20.20;91.40;;;;;;6292940;22;20006;-78
2023/05/29 07:54:05;;;;;;;1999.90;999.90;;;20.10;91.00;;;;;;6188831;23;20020;-83
2023/05/29 07:56:30;;;;;;;1999.90;999.90;;;20.30;90.80;;;;;;6187548;23;20013;-80
2023/05/29 07:58:56;;;;;;;1999.90;999.90;;;20.40;90.40;;;;;;6186099;23;20006;-81
2023/05/29 08:01:22;;;;;;;1999.90;999.90;;;20.60;90.40;;;;;;6187888;23;20009;-80
2023/05/29 08:03:47;;;;;;;1999.90;999.90;;;20.80;89.90;;;;;;6294960;22;20052;-77
2023/05/29 08:06:13;;;;;;;1999.90;999.90;;;20.90;87.80;;;;;;6292679;22;20006;-80
2023/05/29 08:08:39;;;;;;;1999.90;999.90;;;21.00;84.20;;;;;;6189292;22;20702;-82
2023/05/29 08:11:04;;;;;;;1999.90;999.90;;;21.50;85.30;;;;;;6291866;22;20085;-81
2023/05/29 08:13:30;;;;;;;1999.90;999.90;;;21.80;83.80;;;;;;6292832;22;20044;-78
2023/05/29 08:15:56;;;;;;;1999.90;999.90;;;21.90;85.80;;;;;;6188581;22;20377;-80
2023/05/29 08:18:25;;;;;;;1999.90;999.90;;;22.10;83.60;;;;;;6295379;22;20020;-78
2023/05/29 08:20:52;;;;;;;1999.90;999.90;;;21.90;83.50;;;;;;6293384;22;20010;-81
2023/05/29 08:23:18;;;;;;;1999.90;999.90;;;22.00;82.90;;;;;;6293916;22;20024;-83
2023/05/29 08:25:44;;;;;;;1999.90;999.90;;;22.20;82.10;;;;;;6190536;23;20493;-80
2023/05/29 08:28:09;;;;;;;1999.90;999.90;;;22.30;83.60;;;;;;6190788;23;20081;-83
2023/05/29 08:30:35;;;;;;;1999.90;999.90;;;22.50;81.30;;;;;;6326587;22;19998;-82
2023/05/29 08:33:01;;;;;;;1999.90;999.90;;;22.70;82.20;;;;;;6300581;22;20014;-81
2023/05/29 08:35:27;;;;;;;1999.90;999.90;;;22.60;78.80;;;;;;6298655;22;20017;-82
2023/05/29 08:37:52;;;;;;;1999.90;999.90;;;22.50;80.90;;;;;;6323782;22;20020;-82
2023/05/29 08:40:18;;;;;;;1999.90;999.90;;;22.70;81.20;;;;;;6297220;22;20018;-79
2023/05/29 08:42:55;;;;;;;1999.90;999.90;;;22.80;83.20;;;;;;6298840;22;20009;-82
2023/05/29 08:45:23;;;;;;;1999.90;999.90;;;23.20;78.90;;;;;;6297595;22;20001;-80
2023/05/29 08:47:52;;;;;;;1999.90;999.90;;;23.00;79.30;;;;;;6193065;23;20536;-80
2023/05/29 08:50:20;;;;;;;1999.90;999.90;;;23.10;78.50;;;;;;6292415;22;20009;-76
2023/05/29 08:52:46;;;;;;;1999.90;999.90;;;23.50;78.10;;;;;;6193629;23;20038;-81
2023/05/29 08:55:12;;;;;;;1999.90;999.90;;;23.50;78.10;;;;;;6302008;22;20012;-85
2023/05/29 08:57:39;;;;;;;1999.90;999.90;;;23.70;77.50;;;;;;6300896;22;20211;-82
2023/05/29 09:00:12;;;;;;;1999.90;999.90;;;23.70;77.50;;;;;;6300621;22;20009;-85
2023/05/29 09:02:44;;;;;;;1999.90;999.90;;;23.60;77.40;;;;;;6192566;23;20017;-84
2023/05/29 09:05:10;;;;;;;1999.90;999.90;;;23.60;78.50;;;;;;6303041;22;20080;-82
2023/05/29 09:07:39;;;;;;;1999.90;999.90;;;23.70;79.10;;;;;;6199017;23;20016;-83
2023/05/29 09:10:13;;;;;;;1999.90;999.90;;;24.00;77.70;;;;;;6301713;22;20001;-85
2023/05/29 09:12:39;;;;;;;1999.90;999.90;;;24.00;76.10;;;;;;6300718;22;20024;-82
2023/05/29 09:15:18;;;;;;;1999.90;999.90;;;24.10;75.70;;;;;;6297870;22;20013;-82
2023/05/29 09:17:48;;;;;;;1999.90;999.90;;;24.20;74.40;;;;;;6300119;22;20479;-82
2023/05/29 09:20:18;;;;;;;1999.90;999.90;;;24.20;75.40;;;;;;6302456;22;20107;-81
2023/05/29 09:23:12;;;;;;;1999.90;999.90;;;24.30;73.20;;;;;;6300276;22;20009;-81
2023/05/29 09:25:44;;;;;;;1999.90;999.90;;;24.30;73.70;;;;;;6192070;23;19998;-82
2023/05/29 09:28:10;;;;;;;1999.90;999.90;;;24.50;74.80;;;;;;6298902;22;20440;-83
2023/05/29 09:30:39;;;;;;;1999.90;999.90;;;24.60;75.30;;;;;;6301236;22;20084;-79
2023/05/29 09:33:08;;;;;;;1999.90;999.90;;;24.50;72.80;;;;;;6302188;22;20014;-83
2023/05/29 09:35:42;;;;;;;1999.90;999.90;;;24.70;74.10;;;;;;6306553;22;20012;-82
2023/05/29 09:38:09;;;;;;;1999.90;999.90;;;24.80;72.80;;;;;;6309552;22;20016;-83
2023/05/29 09:40:37;;;;;;;1999.90;999.90;;;24.90;72.10;;;;;;6304267;22;19998;-83
2023/05/29 09:43:08;;;;;;;1999.90;999.90;;;24.90;72.20;;;;;;6303731;22;20037;-82
2023/05/29 09:46:02;;;;;;;1999.90;999.90;;;25.10;73.40;;;;;;6299704;22;20005;-81
2023/05/29 09:48:29;;;;;;;1999.90;999.90;;;25.40;73.10;;;;;;6198396;23;20765;-82
2023/05/29 09:50:57;;;;;;;1999.90;999.90;;;25.50;71.90;;;;;;6304463;22;20063;-82
2023/05/29 09:53:25;;;;;;;1999.90;999.90;;;25.60;71.00;;;;;;6306460;22;20088;-82
2023/05/29 09:55:55;;;;;;;1999.90;999.90;;;25.50;70.60;;;;;;6306522;22;20005;-82
2023/05/29 09:58:25;;;;;;;1999.90;999.90;;;25.70;71.90;;;;;;6195463;23;20032;-83
2023/05/29 10:00:53;;;;;;;1999.90;999.90;;;25.90;71.70;;;;;;6297056;22;20005;-83
2023/05/29 10:03:21;;;;;;;1999.90;999.90;;;26.20;68.10;;;;;;6190901;23;20016;-82
2023/05/29 10:05:54;;;;;;;1999.90;999.90;;;26.30;65.00;;;;;;6297847;22;20005;-83
2023/05/29 10:08:20;;;;;;;1999.90;999.90;;;26.50;67.30;;;;;;6297650;22;20067;-83
2023/05/29 10:10:54;;;;;;;1999.90;999.90;;;26.80;67.90;;;;;;6295898;22;20014;-84
2023/05/29 10:13:23;;;;;;;1999.90;999.90;;;26.70;62.80;;;;;;6190723;22;20033;-83
2023/05/29 10:15:51;;;;;;;1999.90;999.90;;;26.60;61.90;;;;;;6192249;23;19998;-83
2023/05/29 10:18:28;;;;;;;1999.90;999.90;;;26.80;64.80;;;;;;6295318;22;20017;-85
2023/05/29 10:20:56;;;;;;;1999.90;999.90;;;26.50;63.50;;;;;;6296134;22;20013;-84
2023/05/29 10:23:24;;;;;;;1999.90;999.90;;;26.30;62.90;;;;;;6295283;22;20014;-84
2023/05/29 10:26:01;;;;;;;1999.90;999.90;;;26.40;65.50;;;;;;6295927;22;20013;-84
2023/05/29 10:28:27;;;;;;;1999.90;999.90;;;26.60;62.80;;;;;;6192703;23;20014;-82
2023/05/29 10:31:09;;;;;;;1999.90;999.90;;;27.00;60.40;;;;;;6193783;23;20037;-77
2023/05/29 10:33:59;;;;;;;1999.90;999.90;;;26.80;60.70;;;;;;6196594;23;20824;-83
2023/05/29 10:36:32;;;;;;;1999.90;999.90;;;26.70;62.90;;;;;;6297795;22;20005;-80
2023/05/29 10:38:58;;;;;;;1999.90;999.90;;;26.80;61.80;;;;;;6294521;22;20009;-77
2023/05/29 10:41:26;;;;;;;1999.90;999.90;;;27.00;58.60;;;;;;6189712;22;20060;-78
2023/05/29 10:43:55;;;;;;;1999.90;999.90;;;27.10;60.20;;;;;;6189745;23;20010;-79
2023/05/29 10:46:21;;;;;;;1999.90;999.90;;;27.30;63.00;;;;;;6294358;22;20010;-78
2023/05/29 10:48:49;;;;;;;1999.90;999.90;;;27.10;61.40;;;;;;6186990;23;20006;-77
2023/05/29 10:51:28;;;;;;;1999.90;999.90;;;27.40;58.60;;;;;;6294250;22;20093;-80
2023/05/29 10:53:54;;;;;;;1999.90;999.90;;;27.70;56.60;;;;;;6295027;22;20085;-83
2023/05/29 10:56:23;;;;;;;1999.90;999.90;;;27.60;54.10;;;;;;6191853;23;20128;-83
2023/05/29 10:58:54;;;;;;;1999.90;999.90;;;27.50;53.30;;;;;;6190824;23;20016;-79
2023/05/29 11:01:24;;;;;;;1999.90;999.90;;;27.80;55.60;;;;;;6187758;23;20413;-77
2023/05/29 11:03:52;;;;;;;1999.90;999.90;;;27.90;55.20;;;;;;6293386;22;20014;-75
2023/05/29 11:06:20;;;;;;;1999.90;999.90;;;27.70;53.00;;;;;;6293286;22;20057;-79
2023/05/29 11:08:54;;;;;;;1999.90;999.90;;;28.00;55.70;;;;;;6188881;22;20013;-78
2023/05/29 11:11:30;;;;;;;1999.90;999.90;;;27.90;55.30;;;;;;6291661;22;20444;-77
2023/05/29 11:13:59;;;;;;;1999.90;999.90;;;28.10;53.30;;;;;;6187709;23;20010;-78
2023/05/29 11:16:25;;;;;;;1999.90;999.90;;;27.70;55.70;;;;;;6292606;22;20076;-78
2023/05/29 11:18:52;;;;;;;1999.90;999.90;;;27.70;52.50;;;;;;6188771;23;20037;-76
2023/05/29 11:21:31;;;;;;;1999.90;999.90;;;27.90;54.20;;;;;;6188435;23;20586;-76
2023/05/29 11:23:58;;;;;;;1999.90;999.90;;;27.90;53.30;;;;;;6189333;23;20032;-76
2023/05/29 11:26:27;;;;;;;1999.90;999.90;;;27.90;52.50;;;;;;6189025;23;20012;-79
2023/05/29 11:28:53;;;;;;;1999.90;999.90;;;27.70;54.50;;;;;;6292679;22;20072;-76
2023/05/29 11:31:22;;;;;;;1999.90;999.90;;;27.80;55.10;;;;;;6188335;23;20009;-78
2023/05/29 11:33:50;;;;;;;1999.90;999.90;;;27.90;57.30;;;;;;6189814;22;20012;-79
2023/05/29 11:36:19;;;;;;;1999.90;999.90;;;27.90;54.40;;;;;;6192701;23;20036;-80
2023/05/29 11:38:45;;;;;;;1999.90;999.90;;;28.10;54.40;;;;;;6195582;23;20028;-78
2023/05/29 11:41:10;;;;;;;1999.90;999.90;;;28.20;55.80;;;;;;6188924;23;20408;-79
2023/05/29 11:43:36;;;;;;;1999.90;999.90;;;28.40;55.40;;;;;;6293276;22;20016;-83
2023/05/29 11:46:02;;;;;;;1999.90;999.90;;;28.70;53.50;;;;;;6190209;23;20036;-81
2023/05/29 11:48:28;;;;;;;1999.90;999.90;;;28.70;55.00;;;;;;6188732;23;20093;-77
2023/05/29 11:50:53;;;;;;;1999.90;999.90;;;28.50;54.50;;;;;;6188243;22;20048;-79
2023/05/29 11:53:19;;;;;;;1999.90;999.90;;;28.90;58.00;;;;;;6189388;23;20018;-79
2023/05/29 11:55:44;;;;;;;1999.90;999.90;;;28.90;52.40;;;;;;6189000;23;20334;-81
2023/05/29 11:58:10;;;;;;;1999.90;999.90;;;28.80;53.10;;;;;;6293039;22;20010;-84